createdAt,value
2019-03-10T00:00:37.247Z,37.98
2019-03-10T00:02:12.221Z,27.75
2019-03-10T00:03:46.438Z,18.80
2019-03-10T00:05:20.656Z,22.93
2019-03-10T00:06:55.308Z,21.85
2019-03-10T00:08:29.539Z,13.68
2019-03-10T00:10:06.406Z,13.03
2019-03-10T00:11:40.609Z,11.50
2019-03-10T00:13:15.319Z,12.00
2019-03-10T00:14:49.515Z,13.00
2019-03-10T00:16:23.990Z,16.02
2019-03-10T00:17:58.236Z,23.32
2019-03-10T00:19:32.736Z,27.05
2019-03-10T00:21:06.990Z,22.20
2019-03-10T00:22:41.214Z,18.90
2019-03-10T00:24:15.559Z,17.95
2019-03-10T00:25:50.112Z,14.20
2019-03-10T00:27:24.340Z,17.82
2019-03-10T00:28:58.529Z,16.15
2019-03-10T00:30:32.777Z,12.10
2019-03-10T00:32:07.586Z,17.27
2019-03-10T00:33:41.873Z,16.23
2019-03-10T00:35:16.141Z,15.60
2019-03-10T00:36:50.393Z,16.80
2019-03-10T00:38:25.015Z,17.50
2019-03-10T00:40:24.523Z,20.68
2019-03-10T00:42:30.386Z,18.30
2019-03-10T00:44:23.307Z,16.90
2019-03-10T00:46:26.212Z,19.85
2019-03-10T00:48:29.108Z,18.87
2019-03-10T00:50:22.636Z,21.62
2019-03-10T00:52:08.374Z,16.75
2019-03-10T00:53:42.659Z,20.37
2019-03-10T00:55:16.898Z,17.50
2019-03-10T00:56:51.548Z,17.82
2019-03-10T00:58:25.245Z,20.20
2019-03-10T01:00:00.703Z,15.43
2019-03-10T01:01:34.788Z,19.73
2019-03-10T01:03:09.814Z,13.28
2019-03-10T01:04:44.108Z,16.70
2019-03-10T01:06:18.379Z,14.73
2019-03-10T01:07:52.815Z,18.25
2019-03-10T01:09:27.373Z,20.97
2019-03-10T01:11:01.575Z,22.70
2019-03-10T01:12:35.854Z,55.00
2019-03-10T01:14:10.084Z,57.53
2019-03-10T01:15:45.314Z,23.90
2019-03-10T01:17:21.098Z,18.27
2019-03-10T01:18:57.259Z,15.08
2019-03-10T01:20:31.750Z,19.80
2019-03-10T01:22:06.353Z,20.57
2019-03-10T01:23:42.805Z,19.05
2019-03-10T01:25:16.519Z,14.87
2019-03-10T01:26:50.711Z,21.00
2019-03-10T01:28:25.457Z,17.95
2019-03-10T01:29:59.772Z,18.07
2019-03-10T01:32:02.539Z,16.90
2019-03-10T01:33:46.164Z,16.15
2019-03-10T01:35:23.491Z,16.70
2019-03-10T01:36:57.677Z,16.95
2019-03-10T01:38:31.904Z,19.37
2019-03-10T01:40:07.420Z,19.60
2019-03-10T01:41:41.625Z,14.53
2019-03-10T01:43:15.926Z,19.07
2019-03-10T01:44:50.148Z,19.15
2019-03-10T01:46:24.895Z,13.20
2019-03-10T01:47:59.412Z,14.68
2019-03-10T01:49:33.905Z,15.78
2019-03-10T01:51:08.615Z,20.37
2019-03-10T01:52:43.118Z,18.55
2019-03-10T01:54:17.394Z,22.25
2019-03-10T01:55:51.705Z,17.77
2019-03-10T01:57:25.968Z,15.78
2019-03-10T01:59:00.774Z,18.55
2019-03-10T02:00:35.494Z,24.47
2019-03-10T02:02:09.742Z,25.55
2019-03-10T02:03:43.485Z,21.43
2019-03-10T02:05:18.349Z,17.62
2019-03-10T02:06:52.622Z,21.27
2019-03-10T02:08:26.893Z,18.77
2019-03-10T02:10:00.589Z,17.97
2019-03-10T02:11:35.242Z,21.70
2019-03-10T02:13:09.544Z,19.77
2019-03-10T02:14:43.736Z,24.00
2019-03-10T02:16:18.070Z,14.30
2019-03-10T02:17:52.699Z,25.10
2019-03-10T02:19:26.900Z,24.52
2019-03-10T02:21:01.684Z,24.67
2019-03-10T02:22:36.430Z,27.05
2019-03-10T02:24:11.077Z,26.68
2019-03-10T02:25:45.285Z,20.02
2019-03-10T02:27:19.610Z,19.87
2019-03-10T02:28:53.913Z,17.73
2019-03-10T02:30:28.237Z,24.90
2019-03-10T02:32:02.513Z,22.60
2019-03-10T02:33:36.750Z,19.75
2019-03-10T02:35:11.071Z,17.50
2019-03-10T02:36:45.755Z,20.77
2019-03-10T02:38:20.471Z,17.50
2019-03-10T02:39:54.792Z,19.35
2019-03-10T02:41:28.515Z,18.60
2019-03-10T02:43:03.314Z,21.62
2019-03-10T02:44:37.754Z,21.77
2019-03-10T02:46:11.947Z,14.23
2019-03-10T02:47:46.225Z,17.48
2019-03-10T02:49:20.590Z,20.20
2019-03-10T02:50:54.810Z,15.72
2019-03-10T02:52:29.072Z,15.53
2019-03-10T02:54:03.315Z,13.40
2019-03-10T02:55:38.020Z,22.42
2019-03-10T02:57:11.660Z,16.37
2019-03-10T02:58:45.934Z,17.32
2019-03-10T03:00:19.567Z,18.57
2019-03-10T03:01:53.724Z,20.60
2019-03-10T03:03:27.359Z,21.60
2019-03-10T03:05:01.106Z,17.70
2019-03-10T03:06:34.736Z,22.67
2019-03-10T03:08:09.337Z,15.98
2019-03-10T03:09:43.221Z,18.67
2019-03-10T03:11:17.521Z,23.75
2019-03-10T03:12:51.750Z,16.67
2019-03-10T03:14:25.858Z,22.93
2019-03-10T03:15:59.562Z,19.60
2019-03-10T03:17:33.827Z,31.00
2019-03-10T03:19:07.465Z,25.43
2019-03-10T03:20:42.285Z,22.75
2019-03-10T03:22:16.556Z,28.42
2019-03-10T03:23:50.260Z,23.20
2019-03-10T03:25:25.145Z,21.10
2019-03-10T03:27:02.624Z,19.17
2019-03-10T03:28:36.068Z,16.82
2019-03-10T03:30:19.031Z,17.70
2019-03-10T03:31:52.904Z,19.73
2019-03-10T03:33:27.214Z,22.25
2019-03-10T03:35:01.071Z,14.93
2019-03-10T03:36:36.233Z,14.23
2019-03-10T03:38:10.450Z,21.02
2019-03-10T03:39:44.363Z,17.77
2019-03-10T03:41:23.780Z,19.12
2019-03-10T03:42:58.135Z,20.75
2019-03-10T03:44:32.420Z,17.82
2019-03-10T03:46:06.736Z,21.05
2019-03-10T03:47:40.438Z,15.30
2019-03-10T03:49:14.198Z,20.93
2019-03-10T03:50:47.914Z,20.67
2019-03-10T03:52:21.821Z,19.65
2019-03-10T03:53:55.570Z,16.63
2019-03-10T03:55:29.283Z,20.87
2019-03-10T03:57:03.900Z,17.98
2019-03-10T03:58:38.858Z,19.10
2019-03-10T04:00:13.140Z,17.33
2019-03-10T04:01:48.397Z,15.40
2019-03-10T04:03:22.091Z,16.53
2019-03-10T04:04:55.910Z,15.63
2019-03-10T04:06:29.589Z,15.43
2019-03-10T04:08:03.292Z,15.43
2019-03-10T04:09:36.959Z,15.63
2019-03-10T04:11:11.189Z,17.00
2019-03-10T04:12:45.143Z,13.73
2019-03-10T04:14:18.745Z,16.90
2019-03-10T04:15:53.060Z,18.57
2019-03-10T04:17:27.319Z,17.73
2019-03-10T04:19:00.935Z,19.73
2019-03-10T04:20:35.217Z,16.87
2019-03-10T04:22:08.964Z,14.80
2019-03-10T04:23:43.431Z,17.48
2019-03-10T04:25:18.719Z,21.87
2019-03-10T04:26:52.431Z,14.37
2019-03-10T04:28:26.084Z,19.33
2019-03-10T04:30:00.456Z,18.47
2019-03-10T04:31:34.380Z,18.07
2019-03-10T04:33:08.018Z,20.23
2019-03-10T04:34:41.652Z,20.57
2019-03-10T04:36:15.893Z,16.13
2019-03-10T04:37:49.588Z,18.40
2019-03-10T04:39:23.294Z,18.63
2019-03-10T04:40:56.934Z,15.10
2019-03-10T04:42:30.644Z,19.07
2019-03-10T04:44:04.798Z,18.73
2019-03-10T04:45:38.486Z,17.70
2019-03-10T04:47:12.736Z,16.80
2019-03-10T04:48:46.741Z,17.50
2019-03-10T04:50:20.357Z,23.87
2019-03-10T04:51:54.068Z,21.13
2019-03-10T04:53:28.410Z,24.02
2019-03-10T04:55:16.211Z,29.93
2019-03-10T04:56:51.550Z,28.13
2019-03-10T04:58:26.118Z,26.97
2019-03-10T05:00:00.433Z,26.07
2019-03-10T05:01:34.232Z,26.80
2019-03-10T05:03:07.895Z,22.73
2019-03-10T05:04:41.530Z,20.23
2019-03-10T05:06:15.831Z,17.73
2019-03-10T05:07:50.188Z,20.20
2019-03-10T05:09:23.862Z,20.50
2019-03-10T05:10:57.480Z,36.50
2019-03-10T05:12:31.242Z,27.33
2019-03-10T05:14:05.408Z,25.50
2019-03-10T05:15:40.249Z,18.80
2019-03-10T05:17:13.882Z,21.90
2019-03-10T05:18:48.202Z,24.82
2019-03-10T05:20:22.083Z,21.30
2019-03-10T05:21:55.730Z,17.20
2019-03-10T05:23:37.561Z,18.63
2019-03-10T05:25:22.695Z,31.10
2019-03-10T05:26:56.647Z,28.50
2019-03-10T05:28:32.294Z,28.57
2019-03-10T05:30:08.993Z,30.93
2019-03-10T05:31:43.313Z,27.80
2019-03-10T05:33:17.807Z,24.85
2019-03-10T05:34:51.464Z,23.93
2019-03-10T05:36:25.175Z,23.70
2019-03-10T05:37:58.960Z,23.13
2019-03-10T05:39:33.488Z,24.40
2019-03-10T05:41:07.262Z,19.13
2019-03-10T05:42:40.852Z,27.13
2019-03-10T05:44:15.045Z,77.67
2019-03-10T05:45:48.998Z,34.93
2019-03-10T05:47:23.634Z,20.23
2019-03-10T05:48:57.223Z,24.13
2019-03-10T05:50:30.857Z,20.40
2019-03-10T05:52:04.800Z,23.10
2019-03-10T05:53:39.056Z,23.57
2019-03-10T05:55:13.274Z,23.62
2019-03-10T05:56:46.948Z,20.87
2019-03-10T05:58:21.358Z,21.82
2019-03-10T05:59:54.963Z,15.83
2019-03-10T06:01:30.135Z,21.27
2019-03-10T06:03:03.882Z,26.00
2019-03-10T06:04:38.381Z,23.75
2019-03-10T06:06:11.998Z,22.67
2019-03-10T06:07:46.272Z,23.85
2019-03-10T06:09:20.614Z,21.95
2019-03-10T06:10:54.794Z,24.20
2019-03-10T06:12:29.124Z,23.02
2019-03-10T06:14:03.313Z,21.87
2019-03-10T06:15:37.534Z,22.37
2019-03-10T06:17:12.041Z,22.37
2019-03-10T06:18:46.684Z,24.15
2019-03-10T06:20:20.910Z,24.95
2019-03-10T06:21:55.124Z,27.40
2019-03-10T06:23:29.613Z,28.07
2019-03-10T06:25:04.647Z,29.48
2019-03-10T06:26:38.870Z,32.88
2019-03-10T06:28:13.137Z,26.25
2019-03-10T06:29:47.655Z,25.00
2019-03-10T06:31:21.888Z,24.45
2019-03-10T06:32:56.233Z,23.22
2019-03-10T06:34:30.787Z,23.47
2019-03-10T06:36:05.200Z,21.57
2019-03-10T06:37:39.508Z,28.57
2019-03-10T06:39:13.834Z,27.05
2019-03-10T06:40:48.133Z,26.93
2019-03-10T06:42:22.957Z,24.02
2019-03-10T06:43:57.186Z,23.22
2019-03-10T06:45:31.490Z,18.00
2019-03-10T06:47:05.809Z,16.50
2019-03-10T06:48:40.313Z,24.63
2019-03-10T06:50:14.900Z,16.87
2019-03-10T06:51:49.211Z,18.73
2019-03-10T06:53:23.464Z,24.72
2019-03-10T06:54:58.162Z,28.73
2019-03-10T06:56:32.504Z,17.98
2019-03-10T06:58:06.733Z,22.22
2019-03-10T06:59:40.978Z,19.65
2019-03-10T07:01:15.521Z,22.22
2019-03-10T07:02:49.872Z,17.48
2019-03-10T07:04:24.096Z,21.15
2019-03-10T07:05:58.455Z,18.60
2019-03-10T07:07:32.929Z,16.02
2019-03-10T07:09:07.289Z,20.05
2019-03-10T07:10:41.545Z,18.50
2019-03-10T07:12:15.773Z,21.87
2019-03-10T07:13:50.302Z,27.00
2019-03-10T07:15:26.420Z,18.75
2019-03-10T07:17:00.691Z,20.37
2019-03-10T07:18:34.924Z,18.23
2019-03-10T07:20:15.746Z,25.68
2019-03-10T07:21:49.993Z,19.77
2019-03-10T07:23:24.811Z,20.68
2019-03-10T07:24:59.019Z,51.75
2019-03-10T07:26:33.412Z,32.03
2019-03-10T07:28:25.414Z,41.35
2019-03-10T07:30:01.357Z,258.15
2019-03-10T07:31:37.342Z,69.00
2019-03-10T07:33:28.450Z,183.47
2019-03-10T07:35:07.007Z,119.13
2019-03-10T07:36:49.235Z,38.98
2019-03-10T07:38:41.474Z,33.45
2019-03-10T07:40:20.315Z,13.08
2019-03-10T07:42:08.631Z,11.78
2019-03-10T07:43:44.489Z,17.27
2019-03-10T07:45:20.356Z,13.10
2019-03-10T07:47:12.762Z,13.83
2019-03-10T07:49:00.432Z,8.30
2019-03-10T07:50:42.194Z,39.42
2019-03-10T07:52:27.432Z,32.48
2019-03-10T07:54:08.790Z,47.60
2019-03-10T07:55:44.347Z,13.07
2019-03-10T07:57:29.720Z,5.20
2019-03-10T07:59:05.283Z,9.20
2019-03-10T08:00:46.922Z,9.55
2019-03-10T08:02:38.947Z,13.67
2019-03-10T08:04:17.381Z,11.90
2019-03-10T08:06:09.408Z,12.47
2019-03-10T08:07:48.111Z,7.97
2019-03-10T08:09:38.894Z,10.38
2019-03-10T08:11:17.295Z,10.97
2019-03-10T08:12:55.504Z,7.60
2019-03-10T08:14:45.867Z,6.53
2019-03-10T08:16:21.754Z,6.75
2019-03-10T08:18:03.748Z,7.35
2019-03-10T08:19:54.964Z,6.58
2019-03-10T08:21:46.618Z,5.83
2019-03-10T08:23:25.667Z,7.50
2019-03-10T08:25:01.250Z,4.87
2019-03-10T08:26:37.091Z,12.98
2019-03-10T08:28:21.330Z,7.13
2019-03-10T08:30:13.463Z,7.05
2019-03-10T08:31:49.050Z,10.23
2019-03-10T08:33:36.531Z,8.80
2019-03-10T08:35:12.389Z,7.40
2019-03-10T08:36:54.565Z,6.85
2019-03-10T08:38:46.702Z,4.62
2019-03-10T08:40:30.898Z,13.27
2019-03-10T08:42:19.548Z,10.57
2019-03-10T08:44:04.754Z,11.15
2019-03-10T08:45:52.553Z,9.53
2019-03-10T08:47:30.641Z,6.37
2019-03-10T08:49:21.455Z,6.30
2019-03-10T08:51:00.036Z,6.45
2019-03-10T08:52:39.210Z,7.80
2019-03-10T08:54:23.596Z,7.03
2019-03-10T08:56:14.374Z,2.60
2019-03-10T08:58:02.155Z,7.42
2019-03-10T08:59:56.011Z,7.40
2019-03-10T09:01:37.105Z,4.78
2019-03-10T09:03:29.655Z,6.42
2019-03-10T09:05:05.694Z,6.23
2019-03-10T09:06:41.540Z,3.77
2019-03-10T09:08:29.572Z,10.55
2019-03-10T09:10:07.579Z,10.03
2019-03-10T09:11:59.781Z,8.73
2019-03-10T09:13:44.583Z,5.33
2019-03-10T09:15:23.358Z,3.92
2019-03-10T09:17:01.940Z,5.05
2019-03-10T09:18:52.694Z,7.17
2019-03-10T09:20:34.171Z,5.05
2019-03-10T09:22:27.961Z,6.97
2019-03-10T09:24:22.305Z,4.70
2019-03-10T09:26:01.054Z,4.15
2019-03-10T09:27:39.644Z,3.35
2019-03-10T09:29:15.530Z,5.47
2019-03-10T09:31:03.926Z,3.85
2019-03-10T09:32:42.984Z,4.12
2019-03-10T09:34:18.805Z,5.42
2019-03-10T09:36:00.700Z,5.50
2019-03-10T09:37:39.467Z,4.33
2019-03-10T09:39:26.875Z,3.52
2019-03-10T09:41:14.602Z,4.62
2019-03-10T09:42:53.683Z,4.60
2019-03-10T09:44:35.240Z,6.35
2019-03-10T09:46:14.136Z,3.33
2019-03-10T09:48:05.179Z,5.05
2019-03-10T09:49:57.181Z,3.27
2019-03-10T09:51:33.067Z,2.62
2019-03-10T09:53:10.603Z,6.78
2019-03-10T09:55:01.881Z,3.90
2019-03-10T09:56:44.061Z,6.75
2019-03-10T09:58:20.015Z,5.33
2019-03-10T10:00:12.107Z,7.62
2019-03-10T10:01:47.961Z,10.65
2019-03-10T10:03:29.945Z,7.65
2019-03-10T10:05:13.369Z,5.10
2019-03-10T10:06:52.307Z,7.67
2019-03-10T10:08:33.773Z,6.65
2019-03-10T10:10:10.831Z,11.18
2019-03-10T10:11:49.707Z,4.22
2019-03-10T10:13:34.657Z,4.47
2019-03-10T10:15:23.945Z,9.18
2019-03-10T10:16:59.796Z,4.58
2019-03-10T10:18:38.432Z,4.72
2019-03-10T10:20:17.231Z,7.05
2019-03-10T10:22:02.555Z,15.30
2019-03-10T10:23:38.525Z,9.08
2019-03-10T10:25:14.313Z,9.00
2019-03-10T10:26:50.188Z,4.83
2019-03-10T10:28:32.294Z,6.90
2019-03-10T10:30:19.800Z,7.72
2019-03-10T10:31:58.319Z,3.98
2019-03-10T10:33:46.531Z,5.87
2019-03-10T10:35:40.712Z,8.23
2019-03-10T10:37:22.669Z,6.22
2019-03-10T10:39:07.806Z,4.67
2019-03-10T10:40:55.257Z,7.12
2019-03-10T10:42:31.114Z,5.37
2019-03-10T10:44:09.947Z,9.10
2019-03-10T10:45:53.459Z,6.55
2019-03-10T10:47:31.764Z,3.85
2019-03-10T10:49:25.558Z,5.80
2019-03-10T10:51:10.353Z,6.50
2019-03-10T10:52:49.202Z,4.72
2019-03-10T10:54:31.519Z,7.85
2019-03-10T10:56:16.503Z,3.85
2019-03-10T10:57:58.334Z,4.75
2019-03-10T10:59:37.390Z,4.25
2019-03-10T11:01:25.493Z,4.20
2019-03-10T11:03:19.835Z,9.23
2019-03-10T11:04:58.519Z,4.37
2019-03-10T11:06:37.356Z,4.87
2019-03-10T11:08:18.891Z,1.80
2019-03-10T11:09:54.760Z,4.08
2019-03-10T11:11:45.985Z,3.25
2019-03-10T11:13:24.799Z,4.72
2019-03-10T11:15:00.699Z,3.30
2019-03-10T11:16:45.648Z,4.83
2019-03-10T11:18:24.753Z,4.10
2019-03-10T11:20:16.797Z,5.45
2019-03-10T11:21:52.740Z,4.25
2019-03-10T11:23:37.653Z,3.55
2019-03-10T11:25:13.520Z,4.30
2019-03-10T11:26:55.319Z,4.22
2019-03-10T11:28:33.922Z,4.58
2019-03-10T11:30:29.210Z,9.88
2019-03-10T11:32:11.075Z,9.18
2019-03-10T11:33:46.976Z,4.37
2019-03-10T11:35:41.538Z,7.83
2019-03-10T11:37:17.435Z,5.15
2019-03-10T11:38:53.275Z,9.93
2019-03-10T11:40:32.161Z,2.90
2019-03-10T11:42:10.882Z,3.40
2019-03-10T11:44:03.122Z,4.95
2019-03-10T11:45:39.023Z,4.75
2019-03-10T11:47:21.328Z,4.37
2019-03-10T11:49:08.980Z,6.83
2019-03-10T11:50:53.941Z,4.42
2019-03-10T11:52:33.244Z,3.35
2019-03-10T11:54:09.076Z,5.28
2019-03-10T11:55:53.931Z,11.45
2019-03-10T11:57:32.556Z,6.78
2019-03-10T11:59:08.578Z,8.38
2019-03-10T12:00:47.445Z,5.17
2019-03-10T12:02:23.336Z,7.62
2019-03-10T12:04:16.926Z,7.30
2019-03-10T12:05:55.765Z,7.05
2019-03-10T12:07:31.682Z,4.55
2019-03-10T12:09:11.853Z,5.12
2019-03-10T12:10:46.267Z,6.65
2019-03-10T12:12:20.531Z,3.33
2019-03-10T12:13:54.854Z,5.42
2019-03-10T12:15:29.118Z,5.72
2019-03-10T12:17:03.643Z,4.50
2019-03-10T12:18:37.887Z,5.15
2019-03-10T12:20:13.638Z,5.85
2019-03-10T12:21:47.898Z,8.23
2019-03-10T12:23:22.596Z,6.25
2019-03-10T12:24:56.886Z,4.78
2019-03-10T12:26:31.124Z,3.20
2019-03-10T12:28:07.472Z,4.55
2019-03-10T12:29:41.889Z,3.17
2019-03-10T12:31:16.104Z,3.85
2019-03-10T12:32:50.369Z,7.70
2019-03-10T12:34:24.593Z,10.08
2019-03-10T12:35:59.047Z,3.87
2019-03-10T12:37:33.516Z,5.00
2019-03-10T12:39:08.238Z,4.03
2019-03-10T12:40:42.450Z,4.03
2019-03-10T12:42:16.888Z,3.92
2019-03-10T12:43:51.083Z,3.40
2019-03-10T12:45:25.404Z,4.78
2019-03-10T12:46:59.637Z,5.28
2019-03-10T12:48:34.060Z,3.45
2019-03-10T12:50:12.996Z,3.67
2019-03-10T12:51:47.196Z,2.33
2019-03-10T12:53:21.424Z,3.90
2019-03-10T12:54:55.790Z,5.20
2019-03-10T12:56:30.139Z,5.83
2019-03-10T12:58:04.746Z,5.08
2019-03-10T12:59:38.958Z,4.15
2019-03-10T13:01:13.640Z,3.98
2019-03-10T13:02:47.891Z,4.15
2019-03-10T13:04:22.203Z,6.25
2019-03-10T13:05:56.449Z,7.78
2019-03-10T13:07:30.877Z,7.83
2019-03-10T13:09:07.103Z,4.22
2019-03-10T13:10:41.353Z,3.58
2019-03-10T13:12:15.674Z,3.70
2019-03-10T13:13:50.183Z,5.00
2019-03-10T13:15:24.382Z,4.47
2019-03-10T13:16:58.649Z,3.70
2019-03-10T13:18:32.983Z,3.72
2019-03-10T13:20:10.385Z,5.05
2019-03-10T13:21:44.614Z,5.22
2019-03-10T13:23:18.864Z,4.70
2019-03-10T13:24:53.206Z,3.87
2019-03-10T13:26:27.735Z,3.95
2019-03-10T13:28:01.926Z,4.45
2019-03-10T13:29:36.217Z,4.20
2019-03-10T13:31:10.449Z,4.08
2019-03-10T13:32:45.080Z,4.80
2019-03-10T13:34:19.359Z,3.90
2019-03-10T13:35:53.675Z,4.28
2019-03-10T13:37:27.877Z,4.85
2019-03-10T13:39:02.627Z,7.33
2019-03-10T13:40:36.933Z,4.10
2019-03-10T13:42:11.178Z,4.20
2019-03-10T13:43:45.575Z,5.55
2019-03-10T13:45:21.716Z,3.67
2019-03-10T13:46:55.990Z,4.47
2019-03-10T13:48:30.288Z,7.58
2019-03-10T13:50:07.506Z,6.62
2019-03-10T13:51:42.228Z,6.37
2019-03-10T13:53:16.491Z,7.40
2019-03-10T13:54:50.733Z,9.65
2019-03-10T13:56:24.949Z,8.38
2019-03-10T13:57:59.679Z,5.72
2019-03-10T13:59:33.985Z,5.10
2019-03-10T14:01:08.285Z,39.25
2019-03-10T14:02:42.591Z,13.83
2019-03-10T14:04:17.352Z,8.23
2019-03-10T14:05:53.727Z,7.78
2019-03-10T14:07:27.963Z,8.73
2019-03-10T14:09:02.130Z,11.45
2019-03-10T14:10:36.571Z,51.35
2019-03-10T14:12:10.766Z,11.22
2019-03-10T14:13:45.060Z,20.35
2019-03-10T14:15:19.367Z,12.20
2019-03-10T14:16:53.859Z,9.65
2019-03-10T14:18:28.174Z,22.07
2019-03-10T14:20:02.363Z,14.23
2019-03-10T14:21:36.586Z,13.10
2019-03-10T14:23:11.133Z,11.80
2019-03-10T14:24:45.465Z,48.70
2019-03-10T14:26:19.853Z,24.47
2019-03-10T14:27:54.162Z,77.67
2019-03-10T14:29:29.369Z,46.13
2019-03-10T14:31:03.696Z,27.80
2019-03-10T14:32:38.047Z,23.80
2019-03-10T14:34:12.266Z,83.22
2019-03-10T14:35:47.022Z,21.52
2019-03-10T14:37:21.329Z,23.65
2019-03-10T14:38:55.653Z,15.93
2019-03-10T14:40:29.928Z,31.70
2019-03-10T14:42:04.489Z,25.88
2019-03-10T14:43:38.744Z,8.73
2019-03-10T14:45:15.510Z,8.25
2019-03-10T14:46:49.776Z,7.83
2019-03-10T14:48:24.382Z,8.35
2019-03-10T14:49:58.561Z,9.35
2019-03-10T14:51:32.760Z,13.48
2019-03-10T14:53:07.089Z,18.17
2019-03-10T14:54:41.560Z,22.67
2019-03-10T14:56:15.786Z,10.75
2019-03-10T14:57:50.107Z,7.70
2019-03-10T14:59:24.392Z,10.43
2019-03-10T15:00:59.125Z,7.50
2019-03-10T15:02:33.394Z,8.15
2019-03-10T15:04:07.609Z,9.18
2019-03-10T15:05:41.954Z,7.83
2019-03-10T15:07:16.429Z,7.97
2019-03-10T15:08:50.686Z,8.00
2019-03-10T15:10:24.998Z,14.95
2019-03-10T15:11:59.261Z,10.38
2019-03-10T15:13:33.486Z,8.58
2019-03-10T15:15:21.684Z,11.75
2019-03-10T15:16:49.087Z,10.08
2019-03-10T15:18:23.337Z,9.13
2019-03-10T15:19:57.546Z,8.95
2019-03-10T15:21:31.766Z,6.78
2019-03-10T15:23:06.075Z,11.63
2019-03-10T15:24:40.385Z,7.30
2019-03-10T15:26:14.591Z,8.00
2019-03-10T15:27:50.367Z,18.95
2019-03-10T15:29:24.582Z,32.80
2019-03-10T15:30:58.929Z,32.20
2019-03-10T15:32:33.108Z,25.82
2019-03-10T15:34:07.824Z,21.97
2019-03-10T15:35:42.122Z,13.32
2019-03-10T15:37:16.406Z,11.83
2019-03-10T15:38:50.638Z,17.80
2019-03-10T15:40:24.919Z,12.10
2019-03-10T15:41:59.143Z,13.15
2019-03-10T15:43:33.471Z,14.43
2019-03-10T15:45:10.427Z,30.08
2019-03-10T15:46:44.798Z,36.88
2019-03-10T15:48:19.122Z,35.63
2019-03-10T15:49:53.337Z,95.47
2019-03-10T15:51:27.636Z,106.03
2019-03-10T15:53:01.957Z,83.25
2019-03-10T15:54:37.874Z,70.72
2019-03-10T15:56:12.188Z,70.15
2019-03-10T15:57:50.609Z,81.25
2019-03-10T15:59:22.388Z,73.25
2019-03-10T16:00:56.729Z,62.30
2019-03-10T16:02:32.806Z,69.42
2019-03-10T16:04:18.392Z,85.25
2019-03-10T16:05:52.740Z,112.20
2019-03-10T16:07:27.273Z,99.30
2019-03-10T16:09:02.808Z,78.33
2019-03-10T16:10:37.047Z,65.30
2019-03-10T16:12:11.332Z,44.18
2019-03-10T16:13:45.545Z,57.55
2019-03-10T16:15:27.506Z,36.15
2019-03-10T16:17:01.821Z,27.95
2019-03-10T16:18:36.163Z,26.97
2019-03-10T16:20:17.081Z,49.00
2019-03-10T16:21:51.253Z,80.03
2019-03-10T16:23:25.479Z,45.12
2019-03-10T16:24:59.668Z,10.68
2019-03-10T16:26:33.998Z,20.90
2019-03-10T16:28:08.257Z,22.32
2019-03-10T16:29:42.482Z,45.83
2019-03-10T16:31:17.390Z,46.53
2019-03-10T16:32:52.623Z,48.68
2019-03-10T16:34:28.786Z,47.03
2019-03-10T16:36:06.070Z,48.95
2019-03-10T16:37:41.178Z,49.75
2019-03-10T16:39:15.412Z,50.60
2019-03-10T16:40:52.818Z,62.03
2019-03-10T16:42:27.644Z,72.25
2019-03-10T16:44:02.969Z,56.53
2019-03-10T16:45:37.742Z,65.65
2019-03-10T16:47:12.116Z,75.08
2019-03-10T16:48:46.639Z,70.25
2019-03-10T16:50:28.678Z,56.18
2019-03-10T16:52:04.117Z,46.18
2019-03-10T16:53:41.669Z,48.75
2019-03-10T16:55:15.699Z,42.67
2019-03-10T16:56:49.967Z,39.10
2019-03-10T16:58:24.243Z,25.27
2019-03-10T16:59:58.567Z,22.65
2019-03-10T17:01:32.912Z,120.62
2019-03-10T17:03:07.167Z,39.53
2019-03-10T17:04:41.471Z,28.75
2019-03-10T17:06:15.677Z,26.35
2019-03-10T17:07:50.096Z,28.02
2019-03-10T17:09:24.406Z,44.80
2019-03-10T17:10:58.668Z,31.52
2019-03-10T17:12:32.981Z,30.48
2019-03-10T17:14:07.295Z,27.00
2019-03-10T17:15:41.633Z,41.02
2019-03-10T17:17:15.857Z,77.55
2019-03-10T17:18:50.143Z,79.22
2019-03-10T17:20:24.481Z,99.05
2019-03-10T17:21:58.751Z,75.10
2019-03-10T17:23:33.051Z,36.95
2019-03-10T17:25:08.856Z,31.82
2019-03-10T17:26:43.068Z,41.30
2019-03-10T17:28:17.321Z,46.30
2019-03-10T17:29:51.614Z,49.18
2019-03-10T17:31:25.835Z,49.53
2019-03-10T17:33:00.181Z,62.30
2019-03-10T17:34:35.931Z,51.58
2019-03-10T17:36:10.213Z,87.40
2019-03-10T17:37:44.539Z,101.18
2019-03-10T17:39:18.759Z,101.80
2019-03-10T17:40:53.105Z,66.30
2019-03-10T17:42:27.394Z,67.72
2019-03-10T17:44:01.698Z,63.05
2019-03-10T17:45:35.970Z,54.45
2019-03-10T17:47:10.237Z,30.23
2019-03-10T17:48:44.635Z,29.15
2019-03-10T17:50:19.298Z,31.35
2019-03-10T17:51:53.585Z,61.25
2019-03-10T17:53:27.875Z,57.60
2019-03-10T17:55:02.196Z,60.15
2019-03-10T17:56:36.467Z,61.88
2019-03-10T17:58:10.809Z,55.95
2019-03-10T17:59:45.146Z,52.55
2019-03-10T18:01:19.716Z,51.13
2019-03-10T18:02:54.012Z,72.65
2019-03-10T18:04:28.366Z,90.00
2019-03-10T18:06:02.574Z,149.25
2019-03-10T18:07:36.804Z,167.47
2019-03-10T18:09:11.533Z,146.30
2019-03-10T18:10:45.894Z,125.10
2019-03-10T18:12:21.784Z,128.02
2019-03-10T18:13:56.062Z,156.22
2019-03-10T18:15:31.798Z,169.75
2019-03-10T18:17:06.132Z,169.93
2019-03-10T18:18:40.424Z,156.97
2019-03-10T18:20:22.777Z,155.22
2019-03-10T18:21:57.000Z,185.03
2019-03-10T18:23:31.273Z,148.28
2019-03-10T18:25:07.923Z,131.57
2019-03-10T18:26:42.247Z,120.75
2019-03-10T18:28:16.466Z,97.42
2019-03-10T18:29:50.847Z,112.80
2019-03-10T18:31:25.091Z,105.03
2019-03-10T18:32:59.325Z,121.35
2019-03-10T18:34:33.578Z,142.98
2019-03-10T18:36:07.871Z,148.30
2019-03-10T18:37:42.210Z,155.90
2019-03-10T18:39:16.438Z,155.93
2019-03-10T18:40:50.768Z,140.65
2019-03-10T18:42:25.112Z,146.10
2019-03-10T18:43:59.344Z,166.43
2019-03-10T18:45:33.632Z,136.22
2019-03-10T18:47:07.882Z,150.72
2019-03-10T18:48:42.161Z,131.67
2019-03-10T18:50:24.153Z,142.35
2019-03-10T18:51:58.403Z,133.85
2019-03-10T18:53:32.732Z,144.00
2019-03-10T18:55:09.541Z,132.15
2019-03-10T18:56:43.770Z,110.70
2019-03-10T18:58:18.113Z,119.35
2019-03-10T18:59:52.459Z,88.78
2019-03-10T19:01:26.690Z,78.33
2019-03-10T19:03:00.931Z,101.02
2019-03-10T19:04:35.157Z,146.70
2019-03-10T19:06:09.447Z,132.63
2019-03-10T19:07:43.705Z,162.22
2019-03-10T19:09:18.228Z,195.65
2019-03-10T19:10:52.459Z,106.25
2019-03-10T19:12:26.811Z,81.50
2019-03-10T19:14:01.109Z,69.97
2019-03-10T19:15:35.361Z,40.50
2019-03-10T19:17:09.720Z,38.60
2019-03-10T19:18:44.005Z,40.12
2019-03-10T19:20:18.205Z,32.63
2019-03-10T19:21:52.568Z,38.67
2019-03-10T19:23:26.871Z,34.63
2019-03-10T19:25:01.164Z,29.10
2019-03-10T19:26:35.361Z,30.75
2019-03-10T19:28:09.754Z,21.12
2019-03-10T19:29:44.055Z,21.15
2019-03-10T19:31:18.392Z,24.15
2019-03-10T19:32:52.653Z,19.17
2019-03-10T19:34:26.905Z,41.42
2019-03-10T19:36:01.195Z,32.65
2019-03-10T19:37:35.556Z,39.65
2019-03-10T19:39:09.794Z,35.30
2019-03-10T19:40:44.100Z,36.05
2019-03-10T19:42:18.440Z,40.92
2019-03-10T19:43:52.798Z,35.45
2019-03-10T19:45:27.090Z,28.38
2019-03-10T19:47:01.379Z,29.50
2019-03-10T19:48:35.675Z,29.00
2019-03-10T19:50:12.503Z,33.25
2019-03-10T19:51:46.734Z,32.75
2019-03-10T19:53:23.261Z,32.17
2019-03-10T19:54:57.533Z,28.38
2019-03-10T19:56:31.843Z,26.52
2019-03-10T19:58:06.138Z,37.13
2019-03-10T19:59:40.371Z,28.27
2019-03-10T20:01:14.695Z,31.52
2019-03-10T20:02:49.050Z,31.42
2019-03-10T20:04:23.401Z,33.78
2019-03-10T20:05:57.601Z,34.55
2019-03-10T20:07:31.918Z,54.83
2019-03-10T20:09:07.093Z,54.55
2019-03-10T20:10:41.811Z,36.08
2019-03-10T20:12:16.595Z,31.27
2019-03-10T20:13:50.901Z,36.88
2019-03-10T20:15:25.851Z,25.75
2019-03-10T20:17:00.080Z,32.13
2019-03-10T20:18:34.362Z,27.35
2019-03-10T20:20:11.342Z,119.70
2019-03-10T20:21:45.696Z,86.42
2019-03-10T20:23:19.972Z,295.15
2019-03-10T20:24:54.202Z,67.65
2019-03-10T20:26:28.430Z,40.43
2019-03-10T20:28:02.764Z,28.45
2019-03-10T20:29:37.013Z,33.65
2019-03-10T20:31:11.298Z,61.65
2019-03-10T20:32:45.616Z,51.42
2019-03-10T20:34:19.975Z,56.20
2019-03-10T20:35:54.179Z,38.20
2019-03-10T20:37:28.463Z,32.78
2019-03-10T20:39:02.778Z,24.20
2019-03-10T20:40:37.146Z,29.60
2019-03-10T20:42:12.330Z,24.70
2019-03-10T20:43:46.975Z,26.02
2019-03-10T20:45:24.536Z,23.75
2019-03-10T20:46:58.569Z,21.70
2019-03-10T20:48:32.907Z,20.12
2019-03-10T20:50:10.314Z,27.00
2019-03-10T20:51:44.679Z,28.05
2019-03-10T20:53:18.853Z,29.72